sensor_id;sensor_type;location;lat;lon;timestamp;temperature;humidity
9151;DHT22;4610;50.006;7.490;2023-01-30T00:00:00;0.40;99.90
9151;DHT22;4610;50.006;7.490;2023-01-30T00:02:27;0.40;99.90
9151;DHT22;4610;50.006;7.490;2023-01-30T00:04:53;0.40;99.90
9151;DHT22;4610;50.006;7.490;2023-01-30T00:07:21;0.40;99.90
9151;DHT22;4610;50.006;7.490;2023-01-30T00:09:49;0.40;99.90
9151;DHT22;4610;50.006;7.490;2023-01-30T00:12:16;0.40;99.90
9151;DHT22;4610;50.006;7.490;2023-01-30T00:14:42;0.30;99.90
9151;DHT22;4610;50.006;7.490;2023-01-30T00:17:09;0.30;99.90
9151;DHT22;4610;50.006;7.490;2023-01-30T00:19:36;0.30;99.90
9151;DHT22;4610;50.006;7.490;2023-01-30T00:22:02;0.40;99.90
9151;DHT22;4610;50.006;7.490;2023-01-30T00:24:30;0.40;99.90
9151;DHT22;4610;50.006;7.490;2023-01-30T00:26:57;0.50;99.90
9151;DHT22;4610;50.006;7.490;2023-01-30T00:29:24;0.50;99.90
9151;DHT22;4610;50.006;7.490;2023-01-30T00:31:51;0.50;99.90
9151;DHT22;4610;50.006;7.490;2023-01-30T00:34:17;0.50;99.90
9151;DHT22;4610;50.006;7.490;2023-01-30T00:36:44;0.50;99.90
9151;DHT22;4610;50.006;7.490;2023-01-30T00:39:11;0.50;99.90
9151;DHT22;4610;50.006;7.490;2023-01-30T00:41:39;0.50;99.90
9151;DHT22;4610;50.006;7.490;2023-01-30T00:44:23;0.60;99.90
9151;DHT22;4610;50.006;7.490;2023-01-30T00:47:07;0.60;99.90
9151;DHT22;4610;50.006;7.490;2023-01-30T00:49:34;0.70;99.90
9151;DHT22;4610;50.006;7.490;2023-01-30T00:52:02;0.70;99.90
9151;DHT22;4610;50.006;7.490;2023-01-30T00:54:29;0.70;99.90
9151;DHT22;4610;50.006;7.490;2023-01-30T00:56:57;0.60;99.90
9151;DHT22;4610;50.006;7.490;2023-01-30T00:59:23;0.60;99.90
9151;DHT22;4610;50.006;7.490;2023-01-30T01:01:50;0.60;99.90
9151;DHT22;4610;50.006;7.490;2023-01-30T01:04:17;0.50;99.90
9151;DHT22;4610;50.006;7.490;2023-01-30T01:06:43;0.50;99.90
9151;DHT22;4610;50.006;7.490;2023-01-30T01:09:10;0.40;99.90
9151;DHT22;4610;50.006;7.490;2023-01-30T01:11:37;0.40;99.90
9151;DHT22;4610;50.006;7.490;2023-01-30T01:14:06;0.30;99.90
9151;DHT22;4610;50.006;7.490;2023-01-30T01:16:33;0.30;99.90
9151;DHT22;4610;50.006;7.490;2023-01-30T01:19:00;0.30;99.90
9151;DHT22;4610;50.006;7.490;2023-01-30T01:21:27;0.40;99.90
9151;DHT22;4610;50.006;7.490;2023-01-30T01:23:56;0.40;99.90
9151;DHT22;4610;50.006;7.490;2023-01-30T01:26:24;0.40;99.90
9151;DHT22;4610;50.006;7.490;2023-01-30T01:28:53;0.40;99.90
9151;DHT22;4610;50.006;7.490;2023-01-30T01:31:21;0.50;99.90
9151;DHT22;4610;50.006;7.490;2023-01-30T01:33:50;0.50;99.90
9151;DHT22;4610;50.006;7.490;2023-01-30T01:36:16;0.50;99.90
9151;DHT22;4610;50.006;7.490;2023-01-30T01:38:43;0.50;99.90
9151;DHT22;4610;50.006;7.490;2023-01-30T01:41:11;0.50;99.90
9151;DHT22;4610;50.006;7.490;2023-01-30T01:43:58;0.50;99.90
9151;DHT22;4610;50.006;7.490;2023-01-30T01:46:28;0.50;99.90
9151;DHT22;4610;50.006;7.490;2023-01-30T01:48:59;0.50;99.90
9151;DHT22;4610;50.006;7.490;2023-01-30T01:51:29;0.50;99.90
9151;DHT22;4610;50.006;7.490;2023-01-30T01:54:00;0.70;99.90
9151;DHT22;4610;50.006;7.490;2023-01-30T01:56:28;0.70;99.90
9151;DHT22;4610;50.006;7.490;2023-01-30T01:59:00;0.70;99.90
9151;DHT22;4610;50.006;7.490;2023-01-30T02:01:29;0.80;99.90
9151;DHT22;4610;50.006;7.490;2023-01-30T02:03:59;0.80;99.90
9151;DHT22;4610;50.006;7.490;2023-01-30T02:06:28;0.70;99.90
9151;DHT22;4610;50.006;7.490;2023-01-30T02:08:59;0.60;99.90
9151;DHT22;4610;50.006;7.490;2023-01-30T02:11:30;0.60;99.90
9151;DHT22;4610;50.006;7.490;2023-01-30T02:14:00;0.60;99.90
9151;DHT22;4610;50.006;7.490;2023-01-30T02:16:29;0.60;99.90
9151;DHT22;4610;50.006;7.490;2023-01-30T02:18:56;0.70;99.90
9151;DHT22;4610;50.006;7.490;2023-01-30T02:21:50;0.70;99.90
9151;DHT22;4610;50.006;7.490;2023-01-30T02:24:33;0.80;99.90
9151;DHT22;4610;50.006;7.490;2023-01-30T02:27:12;0.90;99.90
9151;DHT22;4610;50.006;7.490;2023-01-30T02:33:00;1.00;99.90
9151;DHT22;4610;50.006;7.490;2023-01-30T02:35:30;1.10;99.90
9151;DHT22;4610;50.006;7.490;2023-01-30T02:38:08;1.20;99.90
9151;DHT22;4610;50.006;7.490;2023-01-30T02:40:42;1.10;99.90
9151;DHT22;4610;50.006;7.490;2023-01-30T02:43:22;1.10;99.90
9151;DHT22;4610;50.006;7.490;2023-01-30T02:45:55;1.00;99.90
9151;DHT22;4610;50.006;7.490;2023-01-30T02:48:28;1.00;99.90
9151;DHT22;4610;50.006;7.490;2023-01-30T02:50:58;1.00;99.90
9151;DHT22;4610;50.006;7.490;2023-01-30T02:53:29;1.00;99.90
9151;DHT22;4610;50.006;7.490;2023-01-30T02:55:57;0.90;99.90
9151;DHT22;4610;50.006;7.490;2023-01-30T02:58:27;0.90;99.90
9151;DHT22;4610;50.006;7.490;2023-01-30T03:01:08;0.90;99.90
9151;DHT22;4610;50.006;7.490;2023-01-30T03:03:52;1.00;99.90
9151;DHT22;4610;50.006;7.490;2023-01-30T03:06:43;1.00;99.90
9151;DHT22;4610;50.006;7.490;2023-01-30T03:09:19;1.00;99.90
9151;DHT22;4610;50.006;7.490;2023-01-30T03:11:53;1.10;99.90
9151;DHT22;4610;50.006;7.490;2023-01-30T03:14:26;1.10;99.90
9151;DHT22;4610;50.006;7.490;2023-01-30T03:16:56;1.10;99.90
9151;DHT22;4610;50.006;7.490;2023-01-30T03:19:25;1.20;99.90
9151;DHT22;4610;50.006;7.490;2023-01-30T03:21:54;1.20;99.90
9151;DHT22;4610;50.006;7.490;2023-01-30T03:24:21;1.20;99.90
9151;DHT22;4610;50.006;7.490;2023-01-30T03:26:51;1.10;99.90
9151;DHT22;4610;50.006;7.490;2023-01-30T03:29:19;1.10;99.90
9151;DHT22;4610;50.006;7.490;2023-01-30T03:31:46;1.10;99.90
9151;DHT22;4610;50.006;7.490;2023-01-30T03:34:13;1.10;99.90
9151;DHT22;4610;50.006;7.490;2023-01-30T03:36:41;1.10;99.90
9151;DHT22;4610;50.006;7.490;2023-01-30T03:39:08;1.10;99.90
9151;DHT22;4610;50.006;7.490;2023-01-30T03:41:35;1.10;99.90
9151;DHT22;4610;50.006;7.490;2023-01-30T03:44:01;1.10;99.90
9151;DHT22;4610;50.006;7.490;2023-01-30T03:46:28;1.10;99.90
9151;DHT22;4610;50.006;7.490;2023-01-30T03:48:55;1.10;99.90
9151;DHT22;4610;50.006;7.490;2023-01-30T03:51:22;1.10;99.90
9151;DHT22;4610;50.006;7.490;2023-01-30T03:53:50;1.00;99.90
9151;DHT22;4610;50.006;7.490;2023-01-30T03:56:16;1.00;99.90
9151;DHT22;4610;50.006;7.490;2023-01-30T03:58:43;1.10;99.90
9151;DHT22;4610;50.006;7.490;2023-01-30T04:01:10;1.00;99.90
9151;DHT22;4610;50.006;7.490;2023-01-30T04:03:37;1.10;99.90
9151;DHT22;4610;50.006;7.490;2023-01-30T04:06:03;1.10;99.90
9151;DHT22;4610;50.006;7.490;2023-01-30T04:08:30;1.20;99.90
9151;DHT22;4610;50.006;7.490;2023-01-30T04:10:58;1.20;99.90
9151;DHT22;4610;50.006;7.490;2023-01-30T04:13:25;1.20;99.90
9151;DHT22;4610;50.006;7.490;2023-01-30T04:15:52;1.20;99.90
9151;DHT22;4610;50.006;7.490;2023-01-30T04:18:19;1.20;99.90
9151;DHT22;4610;50.006;7.490;2023-01-30T04:20:46;1.10;99.90
9151;DHT22;4610;50.006;7.490;2023-01-30T04:23:13;1.10;99.90
9151;DHT22;4610;50.006;7.490;2023-01-30T04:25:40;1.10;99.90
9151;DHT22;4610;50.006;7.490;2023-01-30T04:28:08;1.00;99.90
9151;DHT22;4610;50.006;7.490;2023-01-30T04:30:35;1.00;99.90
9151;DHT22;4610;50.006;7.490;2023-01-30T04:33:01;1.00;99.90
9151;DHT22;4610;50.006;7.490;2023-01-30T04:35:28;1.10;99.90
9151;DHT22;4610;50.006;7.490;2023-01-30T04:37:55;1.20;99.90
9151;DHT22;4610;50.006;7.490;2023-01-30T04:40:21;1.30;99.90
9151;DHT22;4610;50.006;7.490;2023-01-30T04:42:48;1.30;99.90
9151;DHT22;4610;50.006;7.490;2023-01-30T04:45:17;1.30;99.90
9151;DHT22;4610;50.006;7.490;2023-01-30T04:47:44;1.30;99.90
9151;DHT22;4610;50.006;7.490;2023-01-30T04:50:12;1.30;99.90
9151;DHT22;4610;50.006;7.490;2023-01-30T04:52:40;1.40;99.90
9151;DHT22;4610;50.006;7.490;2023-01-30T04:55:07;1.40;99.90
9151;DHT22;4610;50.006;7.490;2023-01-30T04:57:34;1.50;99.90
9151;DHT22;4610;50.006;7.490;2023-01-30T05:00:03;1.60;99.90
9151;DHT22;4610;50.006;7.490;2023-01-30T05:02:32;1.60;99.90
9151;DHT22;4610;50.006;7.490;2023-01-30T05:04:58;1.70;99.90
9151;DHT22;4610;50.006;7.490;2023-01-30T05:07:25;1.60;99.90
9151;DHT22;4610;50.006;7.490;2023-01-30T05:09:52;1.70;99.90
9151;DHT22;4610;50.006;7.490;2023-01-30T05:12:19;1.70;99.90
9151;DHT22;4610;50.006;7.490;2023-01-30T05:14:45;1.70;99.90
9151;DHT22;4610;50.006;7.490;2023-01-30T05:17:12;1.60;99.90
9151;DHT22;4610;50.006;7.490;2023-01-30T05:19:40;1.50;99.90
9151;DHT22;4610;50.006;7.490;2023-01-30T05:22:07;1.50;99.90
9151;DHT22;4610;50.006;7.490;2023-01-30T05:24:33;1.40;99.90
9151;DHT22;4610;50.006;7.490;2023-01-30T05:27:01;1.40;99.90
9151;DHT22;4610;50.006;7.490;2023-01-30T05:29:28;1.40;99.90
9151;DHT22;4610;50.006;7.490;2023-01-30T05:31:55;1.40;99.90
9151;DHT22;4610;50.006;7.490;2023-01-30T05:34:22;1.50;99.90
9151;DHT22;4610;50.006;7.490;2023-01-30T05:36:50;1.60;99.90
9151;DHT22;4610;50.006;7.490;2023-01-30T05:39:17;1.60;99.90
9151;DHT22;4610;50.006;7.490;2023-01-30T05:41:44;1.60;99.90
9151;DHT22;4610;50.006;7.490;2023-01-30T05:44:11;1.70;99.90
9151;DHT22;4610;50.006;7.490;2023-01-30T05:46:37;1.70;99.90
9151;DHT22;4610;50.006;7.490;2023-01-30T05:49:04;1.80;99.90
9151;DHT22;4610;50.006;7.490;2023-01-30T05:51:32;1.90;99.90
9151;DHT22;4610;50.006;7.490;2023-01-30T05:54:00;1.90;99.90
9151;DHT22;4610;50.006;7.490;2023-01-30T05:56:27;1.90;99.90
9151;DHT22;4610;50.006;7.490;2023-01-30T05:58:57;1.90;99.90
9151;DHT22;4610;50.006;7.490;2023-01-30T06:01:25;1.80;99.90
9151;DHT22;4610;50.006;7.490;2023-01-30T06:03:52;1.80;99.90
9151;DHT22;4610;50.006;7.490;2023-01-30T06:06:19;1.70;99.90
9151;DHT22;4610;50.006;7.490;2023-01-30T06:08:46;1.80;99.90
9151;DHT22;4610;50.006;7.490;2023-01-30T06:11:15;1.80;99.90
9151;DHT22;4610;50.006;7.490;2023-01-30T06:13:42;1.80;99.90
9151;DHT22;4610;50.006;7.490;2023-01-30T06:16:10;1.70;99.90
9151;DHT22;4610;50.006;7.490;2023-01-30T06:18:37;1.70;99.90
9151;DHT22;4610;50.006;7.490;2023-01-30T06:21:05;1.60;99.90
9151;DHT22;4610;50.006;7.490;2023-01-30T06:23:32;1.60;99.90
9151;DHT22;4610;50.006;7.490;2023-01-30T06:25:59;1.60;99.90
9151;DHT22;4610;50.006;7.490;2023-01-30T06:28:27;1.60;99.90
9151;DHT22;4610;50.006;7.490;2023-01-30T06:30:54;1.70;99.90
9151;DHT22;4610;50.006;7.490;2023-01-30T06:33:21;1.70;99.90
9151;DHT22;4610;50.006;7.490;2023-01-30T06:35:49;1.70;99.90
9151;DHT22;4610;50.006;7.490;2023-01-30T06:38:16;1.80;99.90
9151;DHT22;4610;50.006;7.490;2023-01-30T06:40:45;1.80;99.90
9151;DHT22;4610;50.006;7.490;2023-01-30T06:43:14;1.70;99.90
9151;DHT22;4610;50.006;7.490;2023-01-30T06:45:42;1.60;99.90
9151;DHT22;4610;50.006;7.490;2023-01-30T06:48:10;1.60;99.90
9151;DHT22;4610;50.006;7.490;2023-01-30T06:50:37;1.60;99.90
9151;DHT22;4610;50.006;7.490;2023-01-30T06:53:05;2.40;99.90
9151;DHT22;4610;50.006;7.490;2023-01-30T06:55:33;2.40;99.90
9151;DHT22;4610;50.006;7.490;2023-01-30T06:58:02;2.20;99.90
9151;DHT22;4610;50.006;7.490;2023-01-30T07:00:29;2.00;99.90
9151;DHT22;4610;50.006;7.490;2023-01-30T07:05:27;2.00;99.90
9151;DHT22;4610;50.006;7.490;2023-01-30T07:07:54;1.90;99.90
9151;DHT22;4610;50.006;7.490;2023-01-30T07:10:21;2.00;99.90
9151;DHT22;4610;50.006;7.490;2023-01-30T07:12:50;1.90;99.90
9151;DHT22;4610;50.006;7.490;2023-01-30T07:15:17;1.80;99.90
9151;DHT22;4610;50.006;7.490;2023-01-30T07:17:44;1.80;99.90
9151;DHT22;4610;50.006;7.490;2023-01-30T07:20:11;1.80;99.90
9151;DHT22;4610;50.006;7.490;2023-01-30T07:22:39;1.70;99.90
9151;DHT22;4610;50.006;7.490;2023-01-30T07:25:07;1.70;99.90
9151;DHT22;4610;50.006;7.490;2023-01-30T07:27:33;1.70;99.90
9151;DHT22;4610;50.006;7.490;2023-01-30T07:30:00;1.70;99.90
9151;DHT22;4610;50.006;7.490;2023-01-30T07:32:27;1.60;99.90
9151;DHT22;4610;50.006;7.490;2023-01-30T07:34:54;1.60;99.90
9151;DHT22;4610;50.006;7.490;2023-01-30T07:37:20;1.60;99.90
9151;DHT22;4610;50.006;7.490;2023-01-30T07:39:48;1.60;99.90
9151;DHT22;4610;50.006;7.490;2023-01-30T07:42:15;1.70;99.90
9151;DHT22;4610;50.006;7.490;2023-01-30T07:44:42;1.70;99.90
9151;DHT22;4610;50.006;7.490;2023-01-30T07:47:09;1.70;99.90
9151;DHT22;4610;50.006;7.490;2023-01-30T07:49:35;1.70;99.90
9151;DHT22;4610;50.006;7.490;2023-01-30T07:52:02;1.70;99.90
9151;DHT22;4610;50.006;7.490;2023-01-30T07:54:29;1.80;99.90
9151;DHT22;4610;50.006;7.490;2023-01-30T07:56:57;1.80;99.90
9151;DHT22;4610;50.006;7.490;2023-01-30T07:59:24;1.90;99.90
9151;DHT22;4610;50.006;7.490;2023-01-30T08:01:52;1.90;99.90
9151;DHT22;4610;50.006;7.490;2023-01-30T08:04:18;1.80;99.90
9151;DHT22;4610;50.006;7.490;2023-01-30T08:06:45;1.90;99.90
9151;DHT22;4610;50.006;7.490;2023-01-30T08:09:12;1.90;99.90
9151;DHT22;4610;50.006;7.490;2023-01-30T08:11:39;1.90;99.90
9151;DHT22;4610;50.006;7.490;2023-01-30T08:14:07;1.90;99.90
9151;DHT22;4610;50.006;7.490;2023-01-30T08:16:34;1.90;99.90
9151;DHT22;4610;50.006;7.490;2023-01-30T08:19:03;1.90;99.90
9151;DHT22;4610;50.006;7.490;2023-01-30T08:21:30;1.90;99.90
9151;DHT22;4610;50.006;7.490;2023-01-30T08:23:57;2.00;99.90
9151;DHT22;4610;50.006;7.490;2023-01-30T08:26:23;1.90;99.90
9151;DHT22;4610;50.006;7.490;2023-01-30T08:28:50;1.80;99.90
9151;DHT22;4610;50.006;7.490;2023-01-30T08:31:18;1.80;99.90
9151;DHT22;4610;50.006;7.490;2023-01-30T08:33:46;1.90;99.90
9151;DHT22;4610;50.006;7.490;2023-01-30T08:36:13;1.90;99.90
9151;DHT22;4610;50.006;7.490;2023-01-30T08:38:40;2.00;99.90
9151;DHT22;4610;50.006;7.490;2023-01-30T08:41:07;2.10;99.90
9151;DHT22;4610;50.006;7.490;2023-01-30T08:43:34;2.20;99.90
9151;DHT22;4610;50.006;7.490;2023-01-30T08:46:01;2.30;99.90
9151;DHT22;4610;50.006;7.490;2023-01-30T08:48:29;2.40;99.90
9151;DHT22;4610;50.006;7.490;2023-01-30T08:50:56;2.40;99.90
9151;DHT22;4610;50.006;7.490;2023-01-30T08:53:23;2.50;99.90
9151;DHT22;4610;50.006;7.490;2023-01-30T08:55:49;2.50;99.90
9151;DHT22;4610;50.006;7.490;2023-01-30T08:58:17;2.50;99.90
9151;DHT22;4610;50.006;7.490;2023-01-30T09:00:43;2.60;99.90
9151;DHT22;4610;50.006;7.490;2023-01-30T09:03:12;2.70;99.90
9151;DHT22;4610;50.006;7.490;2023-01-30T09:05:42;2.70;99.90
9151;DHT22;4610;50.006;7.490;2023-01-30T09:08:13;2.90;99.90
9151;DHT22;4610;50.006;7.490;2023-01-30T09:10:41;3.00;99.90
9151;DHT22;4610;50.006;7.490;2023-01-30T09:13:08;3.00;99.90
9151;DHT22;4610;50.006;7.490;2023-01-30T09:15:35;3.10;99.90
9151;DHT22;4610;50.006;7.490;2023-01-30T09:18:02;3.10;99.90
9151;DHT22;4610;50.006;7.490;2023-01-30T09:20:29;3.20;99.90
9151;DHT22;4610;50.006;7.490;2023-01-30T09:22:58;3.40;99.90
9151;DHT22;4610;50.006;7.490;2023-01-30T09:25:24;3.50;99.90
9151;DHT22;4610;50.006;7.490;2023-01-30T09:27:51;3.40;99.90
9151;DHT22;4610;50.006;7.490;2023-01-30T09:30:18;3.40;99.90
9151;DHT22;4610;50.006;7.490;2023-01-30T09:32:46;3.40;99.90
9151;DHT22;4610;50.006;7.490;2023-01-30T09:35:13;3.60;99.90
9151;DHT22;4610;50.006;7.490;2023-01-30T09:37:46;3.50;99.90
9151;DHT22;4610;50.006;7.490;2023-01-30T09:40:17;3.40;99.90
9151;DHT22;4610;50.006;7.490;2023-01-30T09:42:58;3.50;99.90
9151;DHT22;4610;50.006;7.490;2023-01-30T09:45:47;3.60;99.90
9151;DHT22;4610;50.006;7.490;2023-01-30T09:48:21;3.60;99.90
9151;DHT22;4610;50.006;7.490;2023-01-30T09:51:17;3.60;99.90
9151;DHT22;4610;50.006;7.490;2023-01-30T09:56:51;3.40;99.90
9151;DHT22;4610;50.006;7.490;2023-01-30T09:59:23;3.40;99.90
9151;DHT22;4610;50.006;7.490;2023-01-30T10:01:57;3.40;99.90
9151;DHT22;4610;50.006;7.490;2023-01-30T10:04:30;3.50;99.90
9151;DHT22;4610;50.006;7.490;2023-01-30T10:07:05;3.40;99.90
9151;DHT22;4610;50.006;7.490;2023-01-30T10:09:41;3.30;99.90
9151;DHT22;4610;50.006;7.490;2023-01-30T10:12:30;3.30;99.90
9151;DHT22;4610;50.006;7.490;2023-01-30T10:15:13;3.40;99.90
9151;DHT22;4610;50.006;7.490;2023-01-30T10:17:55;3.30;99.90
9151;DHT22;4610;50.006;7.490;2023-01-30T10:20:39;3.30;99.90
9151;DHT22;4610;50.006;7.490;2023-01-30T10:23:25;3.20;99.90
9151;DHT22;4610;50.006;7.490;2023-01-30T10:25:56;3.10;99.90
9151;DHT22;4610;50.006;7.490;2023-01-30T10:28:28;3.10;99.90
9151;DHT22;4610;50.006;7.490;2023-01-30T10:31:01;3.10;99.90
9151;DHT22;4610;50.006;7.490;2023-01-30T10:33:32;3.20;99.90
9151;DHT22;4610;50.006;7.490;2023-01-30T10:36:03;3.30;99.90
9151;DHT22;4610;50.006;7.490;2023-01-30T10:38:36;3.40;99.90
9151;DHT22;4610;50.006;7.490;2023-01-30T10:41:12;3.50;99.90
9151;DHT22;4610;50.006;7.490;2023-01-30T10:43:46;3.60;99.90
9151;DHT22;4610;50.006;7.490;2023-01-30T10:46:24;3.60;99.90
9151;DHT22;4610;50.006;7.490;2023-01-30T10:48:57;3.50;99.90
9151;DHT22;4610;50.006;7.490;2023-01-30T10:51:32;3.50;99.90
9151;DHT22;4610;50.006;7.490;2023-01-30T10:54:06;3.50;99.90
9151;DHT22;4610;50.006;7.490;2023-01-30T10:56:41;3.40;99.90
9151;DHT22;4610;50.006;7.490;2023-01-30T10:59:21;3.30;99.90
9151;DHT22;4610;50.006;7.490;2023-01-30T11:01:54;3.20;99.90
9151;DHT22;4610;50.006;7.490;2023-01-30T11:04:28;3.20;99.90
9151;DHT22;4610;50.006;7.490;2023-01-30T11:06:56;3.20;99.90
9151;DHT22;4610;50.006;7.490;2023-01-30T11:09:37;3.20;99.90
9151;DHT22;4610;50.006;7.490;2023-01-30T11:12:05;3.30;99.90
9151;DHT22;4610;50.006;7.490;2023-01-30T11:14:54;3.50;99.90
9151;DHT22;4610;50.006;7.490;2023-01-30T11:17:29;3.60;99.90
9151;DHT22;4610;50.006;7.490;2023-01-30T11:20:00;3.50;99.90
9151;DHT22;4610;50.006;7.490;2023-01-30T11:22:28;3.60;99.90
9151;DHT22;4610;50.006;7.490;2023-01-30T11:25:04;3.50;99.90
9151;DHT22;4610;50.006;7.490;2023-01-30T11:27:33;3.60;99.90
9151;DHT22;4610;50.006;7.490;2023-01-30T11:30:12;3.50;99.90
9151;DHT22;4610;50.006;7.490;2023-01-30T11:32:41;3.60;99.90
9151;DHT22;4610;50.006;7.490;2023-01-30T11:35:25;3.70;99.90
9151;DHT22;4610;50.006;7.490;2023-01-30T11:37:53;3.80;99.90
9151;DHT22;4610;50.006;7.490;2023-01-30T11:40:25;3.80;99.90
9151;DHT22;4610;50.006;7.490;2023-01-30T11:43:00;3.90;99.90
9151;DHT22;4610;50.006;7.490;2023-01-30T11:45:32;3.90;99.90
9151;DHT22;4610;50.006;7.490;2023-01-30T11:48:01;3.80;99.90
9151;DHT22;4610;50.006;7.490;2023-01-30T11:50:32;3.90;99.90
9151;DHT22;4610;50.006;7.490;2023-01-30T11:53:03;3.90;99.90
9151;DHT22;4610;50.006;7.490;2023-01-30T11:55:34;3.90;99.90
9151;DHT22;4610;50.006;7.490;2023-01-30T11:58:06;4.10;99.90
9151;DHT22;4610;50.006;7.490;2023-01-30T12:00:38;4.20;99.90
9151;DHT22;4610;50.006;7.490;2023-01-30T12:03:10;4.30;99.90
9151;DHT22;4610;50.006;7.490;2023-01-30T12:05:38;4.40;99.90
9151;DHT22;4610;50.006;7.490;2023-01-30T12:08:13;4.40;99.90
9151;DHT22;4610;50.006;7.490;2023-01-30T12:10:43;4.30;99.90
9151;DHT22;4610;50.006;7.490;2023-01-30T12:13:16;4.40;99.90
9151;DHT22;4610;50.006;7.490;2023-01-30T12:15:48;4.40;99.90
9151;DHT22;4610;50.006;7.490;2023-01-30T12:18:22;4.50;99.90
9151;DHT22;4610;50.006;7.490;2023-01-30T12:20:54;4.60;99.90
9151;DHT22;4610;50.006;7.490;2023-01-30T12:23:28;4.70;99.90
9151;DHT22;4610;50.006;7.490;2023-01-30T12:26:01;4.70;99.90
9151;DHT22;4610;50.006;7.490;2023-01-30T12:28:34;4.60;99.90
9151;DHT22;4610;50.006;7.490;2023-01-30T12:31:08;4.40;99.90
9151;DHT22;4610;50.006;7.490;2023-01-30T12:33:37;4.40;99.90
9151;DHT22;4610;50.006;7.490;2023-01-30T12:36:15;4.40;99.90
9151;DHT22;4610;50.006;7.490;2023-01-30T12:39:02;4.30;99.90
9151;DHT22;4610;50.006;7.490;2023-01-30T12:41:39;4.20;99.90
9151;DHT22;4610;50.006;7.490;2023-01-30T12:44:20;4.20;99.90
9151;DHT22;4610;50.006;7.490;2023-01-30T12:47:04;4.40;99.90
9151;DHT22;4610;50.006;7.490;2023-01-30T12:49:42;4.40;99.90
9151;DHT22;4610;50.006;7.490;2023-01-30T12:52:27;4.40;99.90
9151;DHT22;4610;50.006;7.490;2023-01-30T12:55:03;4.40;99.90
9151;DHT22;4610;50.006;7.490;2023-01-30T12:57:38;4.40;99.90
9151;DHT22;4610;50.006;7.490;2023-01-30T13:00:23;4.40;99.90
9151;DHT22;4610;50.006;7.490;2023-01-30T13:03:05;4.50;99.90
9151;DHT22;4610;50.006;7.490;2023-01-30T13:05:43;4.50;99.90
9151;DHT22;4610;50.006;7.490;2023-01-30T13:08:21;4.70;99.90
9151;DHT22;4610;50.006;7.490;2023-01-30T13:10:58;4.80;99.90
9151;DHT22;4610;50.006;7.490;2023-01-30T13:13:36;4.90;99.90
9151;DHT22;4610;50.006;7.490;2023-01-30T13:16:12;4.80;99.90
9151;DHT22;4610;50.006;7.490;2023-01-30T13:18:49;4.90;99.90
9151;DHT22;4610;50.006;7.490;2023-01-30T13:21:22;5.10;99.90
9151;DHT22;4610;50.006;7.490;2023-01-30T13:24:05;5.00;99.90
9151;DHT22;4610;50.006;7.490;2023-01-30T13:26:40;5.00;99.90
9151;DHT22;4610;50.006;7.490;2023-01-30T13:29:12;4.90;99.90
9151;DHT22;4610;50.006;7.490;2023-01-30T13:31:46;4.90;99.90
9151;DHT22;4610;50.006;7.490;2023-01-30T13:34:21;4.90;99.90
9151;DHT22;4610;50.006;7.490;2023-01-30T13:36:54;4.90;99.90
9151;DHT22;4610;50.006;7.490;2023-01-30T13:39:32;4.90;99.90
9151;DHT22;4610;50.006;7.490;2023-01-30T13:42:01;5.10;99.90
9151;DHT22;4610;50.006;7.490;2023-01-30T13:44:33;4.80;99.90
9151;DHT22;4610;50.006;7.490;2023-01-30T13:47:10;4.70;99.90
9151;DHT22;4610;50.006;7.490;2023-01-30T13:49:48;4.70;99.90
9151;DHT22;4610;50.006;7.490;2023-01-30T13:52:23;4.70;99.90
9151;DHT22;4610;50.006;7.490;2023-01-30T13:54:58;4.60;99.90
9151;DHT22;4610;50.006;7.490;2023-01-30T13:57:36;4.60;99.90
9151;DHT22;4610;50.006;7.490;2023-01-30T14:00:28;4.50;99.90
9151;DHT22;4610;50.006;7.490;2023-01-30T14:09:04;4.70;99.90
9151;DHT22;4610;50.006;7.490;2023-01-30T14:11:47;4.80;99.90
9151;DHT22;4610;50.006;7.490;2023-01-30T14:14:33;4.70;99.90
9151;DHT22;4610;50.006;7.490;2023-01-30T14:17:12;4.80;99.90
9151;DHT22;4610;50.006;7.490;2023-01-30T14:19:42;5.20;99.90
9151;DHT22;4610;50.006;7.490;2023-01-30T14:22:19;5.20;99.90
9151;DHT22;4610;50.006;7.490;2023-01-30T14:25:28;5.10;99.90
9151;DHT22;4610;50.006;7.490;2023-01-30T14:30:58;4.90;99.90
9151;DHT22;4610;50.006;7.490;2023-01-30T14:33:33;5.30;99.90
9151;DHT22;4610;50.006;7.490;2023-01-30T14:36:34;5.40;99.90
9151;DHT22;4610;50.006;7.490;2023-01-30T14:39:40;5.30;99.90
9151;DHT22;4610;50.006;7.490;2023-01-30T14:42:21;5.00;99.90
9151;DHT22;4610;50.006;7.490;2023-01-30T14:45:01;4.70;99.90
9151;DHT22;4610;50.006;7.490;2023-01-30T14:47:29;4.70;99.90
9151;DHT22;4610;50.006;7.490;2023-01-30T14:49:56;4.60;99.90
9151;DHT22;4610;50.006;7.490;2023-01-30T14:52:35;4.60;99.90
9151;DHT22;4610;50.006;7.490;2023-01-30T14:55:05;4.60;99.90
9151;DHT22;4610;50.006;7.490;2023-01-30T14:57:50;4.70;99.90
9151;DHT22;4610;50.006;7.490;2023-01-30T15:00:19;4.70;99.90
9151;DHT22;4610;50.006;7.490;2023-01-30T15:02:52;5.30;99.90
9151;DHT22;4610;50.006;7.490;2023-01-30T15:05:27;5.10;99.90
9151;DHT22;4610;50.006;7.490;2023-01-30T15:08:00;4.90;99.90
9151;DHT22;4610;50.006;7.490;2023-01-30T15:10:46;4.70;99.90
9151;DHT22;4610;50.006;7.490;2023-01-30T15:13:35;4.60;99.90
9151;DHT22;4610;50.006;7.490;2023-01-30T15:16:12;4.50;99.90
9151;DHT22;4610;50.006;7.490;2023-01-30T15:18:55;4.50;99.90
9151;DHT22;4610;50.006;7.490;2023-01-30T15:24:48;4.50;99.90
9151;DHT22;4610;50.006;7.490;2023-01-30T15:27:26;4.60;99.90
9151;DHT22;4610;50.006;7.490;2023-01-30T15:30:14;4.40;99.90
9151;DHT22;4610;50.006;7.490;2023-01-30T15:32:42;4.40;99.90
9151;DHT22;4610;50.006;7.490;2023-01-30T15:35:22;4.30;99.90
9151;DHT22;4610;50.006;7.490;2023-01-30T15:37:51;4.40;99.90
9151;DHT22;4610;50.006;7.490;2023-01-30T15:40:20;4.40;99.90
9151;DHT22;4610;50.006;7.490;2023-01-30T15:42:50;4.20;99.90
9151;DHT22;4610;50.006;7.490;2023-01-30T15:45:30;4.10;99.90
9151;DHT22;4610;50.006;7.490;2023-01-30T15:50:55;4.00;99.90
9151;DHT22;4610;50.006;7.490;2023-01-30T15:53:26;3.90;99.90
9151;DHT22;4610;50.006;7.490;2023-01-30T15:55:55;3.80;99.90
9151;DHT22;4610;50.006;7.490;2023-01-30T15:58:25;3.80;99.90
9151;DHT22;4610;50.006;7.490;2023-01-30T16:00:54;3.80;99.90
9151;DHT22;4610;50.006;7.490;2023-01-30T16:03:23;3.70;99.90
9151;DHT22;4610;50.006;7.490;2023-01-30T16:05:53;3.70;99.90
9151;DHT22;4610;50.006;7.490;2023-01-30T16:08:22;3.60;99.90
9151;DHT22;4610;50.006;7.490;2023-01-30T16:10:49;3.50;99.90
9151;DHT22;4610;50.006;7.490;2023-01-30T16:13:16;3.50;99.90
9151;DHT22;4610;50.006;7.490;2023-01-30T16:15:49;3.50;99.90
9151;DHT22;4610;50.006;7.490;2023-01-30T16:18:24;3.40;99.90
9151;DHT22;4610;50.006;7.490;2023-01-30T16:20:55;3.40;99.90
9151;DHT22;4610;50.006;7.490;2023-01-30T16:23:27;3.40;99.90
9151;DHT22;4610;50.006;7.490;2023-01-30T16:25:56;3.20;99.90
9151;DHT22;4610;50.006;7.490;2023-01-30T16:28:24;3.20;99.90
9151;DHT22;4610;50.006;7.490;2023-01-30T16:31:01;3.10;99.90
9151;DHT22;4610;50.006;7.490;2023-01-30T16:33:29;3.10;99.90
9151;DHT22;4610;50.006;7.490;2023-01-30T16:36:00;3.00;99.90
9151;DHT22;4610;50.006;7.490;2023-01-30T16:38:35;2.90;99.90
9151;DHT22;4610;50.006;7.490;2023-01-30T16:41:03;3.50;99.90
9151;DHT22;4610;50.006;7.490;2023-01-30T16:43:31;3.00;99.90
9151;DHT22;4610;50.006;7.490;2023-01-30T16:49:14;3.10;99.90
9151;DHT22;4610;50.006;7.490;2023-01-30T16:51:42;3.20;99.90
9151;DHT22;4610;50.006;7.490;2023-01-30T16:54:16;3.30;99.90
9151;DHT22;4610;50.006;7.490;2023-01-30T16:56:45;3.30;99.90
9151;DHT22;4610;50.006;7.490;2023-01-30T16:59:18;3.30;99.90
9151;DHT22;4610;50.006;7.490;2023-01-30T17:01:45;3.40;99.90
9151;DHT22;4610;50.006;7.490;2023-01-30T17:04:20;3.50;99.90
9151;DHT22;4610;50.006;7.490;2023-01-30T17:06:52;3.50;99.90
9151;DHT22;4610;50.006;7.490;2023-01-30T17:09:42;3.50;99.90